South Amboy, New Jersey
Current Conditions -  °F | °C
As of 5:15 PM on Tuesday 25 Nov 2014 (Local Time) from KLDJ Reporting Station
Clear Clear  
Wind Chill: 56°   Ceiling: Unl
Heat Index: 56°   Visibility: 10mi
Dew Point: 33°   Wind: 3mph
Humidity: 42%   Direction: 260°W
Pressure: 30.06"   Gusts: NA
Location:  40.48°N, 74.28°W
Report Text: KLDJ 252215Z AUTO 26003KT 10SM CLR 13/01 A3006 RMK AO2 T01310005
Loading
Personal Weather Stations






























Interactive Weather Map New forecast layout! Learn more

10-Day Weather Forecast

Advertisements
Track Severe Weather on mobile